createdAt,value
2023-05-02T00:01:54.074Z,11.81
2023-05-02T00:05:00.481Z,11.90
2023-05-02T00:08:02.383Z,11.73
2023-05-02T00:11:04.557Z,12.23
2023-05-02T00:14:06.610Z,11.68
2023-05-02T00:17:08.570Z,12.19
2023-05-02T00:20:12.395Z,12.08
2023-05-02T00:23:14.371Z,12.09
2023-05-02T00:26:16.394Z,12.54
2023-05-02T00:29:18.338Z,12.36
2023-05-02T00:32:20.170Z,12.57
2023-05-02T00:35:23.613Z,12.65
2023-05-02T00:38:25.536Z,12.76
2023-05-02T00:41:27.645Z,13.12
2023-05-02T00:44:29.700Z,13.30
2023-05-02T00:47:31.832Z,12.70
2023-05-02T00:50:37.368Z,13.05
2023-05-02T00:53:39.966Z,12.95
2023-05-02T00:56:42.259Z,12.91
2023-05-02T00:59:44.481Z,12.70
2023-05-02T01:02:53.612Z,12.72
2023-05-02T01:06:08.834Z,12.70
2023-05-02T01:09:23.293Z,12.68
2023-05-02T01:12:29.546Z,12.76
2023-05-02T01:15:33.025Z,12.37
2023-05-02T01:18:39.407Z,12.03
2023-05-02T01:21:43.109Z,11.91
2023-05-02T01:24:54.286Z,12.14
2023-05-02T01:28:05.732Z,12.08
2023-05-02T01:31:09.437Z,12.27
2023-05-02T01:34:12.209Z,11.73
2023-05-02T01:37:18.596Z,12.05
2023-05-02T01:40:22.857Z,12.29
2023-05-02T01:43:26.122Z,12.45
2023-05-02T01:46:33.895Z,11.93
2023-05-02T01:49:37.320Z,11.72
2023-05-02T01:52:40.983Z,11.79
2023-05-02T01:55:46.405Z,12.31
2023-05-02T01:58:51.492Z,11.91
2023-05-02T02:01:56.622Z,12.22
2023-05-02T02:04:59.835Z,11.87
2023-05-02T02:08:01.858Z,12.04
2023-05-02T02:11:09.915Z,12.17
2023-05-02T02:14:18.611Z,11.85
2023-05-02T02:17:28.232Z,11.90
2023-05-02T02:20:32.101Z,11.86
2023-05-02T02:23:36.739Z,12.33
2023-05-02T02:26:38.881Z,11.86
2023-05-02T02:29:40.983Z,11.77
2023-05-02T02:32:46.043Z,11.66
2023-05-02T02:35:54.984Z,11.94
2023-05-02T02:39:10.724Z,11.87
2023-05-02T02:42:19.120Z,11.53
2023-05-02T02:45:30.493Z,11.62
2023-05-02T02:48:37.767Z,11.93
2023-05-02T02:51:46.021Z,11.59
2023-05-02T02:54:58.590Z,11.53
2023-05-02T02:58:05.942Z,11.90
2023-05-02T03:01:15.276Z,11.58
2023-05-02T03:04:21.496Z,11.31
2023-05-02T03:07:23.843Z,11.33
2023-05-02T03:10:26.024Z,11.52
2023-05-02T03:13:27.970Z,11.55
2023-05-02T03:16:37.499Z,11.57
2023-05-02T03:19:41.214Z,11.10
2023-05-02T03:22:43.190Z,11.21
2023-05-02T03:25:45.279Z,11.28
2023-05-02T03:28:47.258Z,11.14
2023-05-02T03:31:49.472Z,10.97
2023-05-02T03:34:52.916Z,11.45
2023-05-02T03:37:54.885Z,11.15
2023-05-02T03:40:57.710Z,11.07
2023-05-02T03:43:59.722Z,11.26
2023-05-02T03:47:01.789Z,11.10
2023-05-02T03:50:06.111Z,11.15
2023-05-02T03:53:10.288Z,11.26
2023-05-02T03:56:12.283Z,11.11
2023-05-02T03:59:15.445Z,11.35
2023-05-02T04:02:17.555Z,11.34
2023-05-02T04:05:21.270Z,11.52
2023-05-02T04:08:23.772Z,11.47
2023-05-02T04:11:27.418Z,11.71
2023-05-02T04:14:29.370Z,11.92
2023-05-02T04:17:31.362Z,11.89
2023-05-02T04:20:34.858Z,11.86
2023-05-02T04:23:36.812Z,11.64
2023-05-02T04:26:38.897Z,11.95
2023-05-02T04:29:40.944Z,11.74
2023-05-02T04:32:43.359Z,11.74
2023-05-02T04:35:46.922Z,11.90
2023-05-02T04:38:48.866Z,12.24
2023-05-02T04:41:50.995Z,12.35
2023-05-02T04:44:52.950Z,12.52
2023-05-02T04:47:54.931Z,12.81
2023-05-02T04:50:58.423Z,13.07
2023-05-02T04:54:00.736Z,13.04
2023-05-02T04:57:03.926Z,13.08
2023-05-02T05:00:07.007Z,13.15
2023-05-02T05:03:08.992Z,13.43
2023-05-02T05:06:12.819Z,13.39
2023-05-02T05:09:14.902Z,13.82
2023-05-02T05:12:16.840Z,13.52
2023-05-02T05:15:21.948Z,13.98
2023-05-02T05:18:24.068Z,13.76
2023-05-02T05:21:27.551Z,13.72
2023-05-02T05:24:29.441Z,14.09
2023-05-02T05:27:31.492Z,14.04
2023-05-02T05:30:33.478Z,14.23
2023-05-02T05:33:35.612Z,14.41
2023-05-02T05:36:40.239Z,14.71
2023-05-02T05:39:42.205Z,14.60
2023-05-02T05:42:44.130Z,14.61
2023-05-02T05:45:46.158Z,14.73
2023-05-02T05:48:48.123Z,14.84
2023-05-02T05:51:51.570Z,14.80
2023-05-02T05:54:55.698Z,14.80
2023-05-02T05:58:00.452Z,14.93
2023-05-02T06:01:05.446Z,15.22
2023-05-02T06:04:08.093Z,14.57
2023-05-02T06:07:11.524Z,14.31
2023-05-02T06:10:14.959Z,14.32
2023-05-02T06:13:17.228Z,14.19
2023-05-02T06:16:19.288Z,14.50
2023-05-02T06:19:21.184Z,14.63
2023-05-02T06:22:24.507Z,15.06
2023-05-02T06:25:26.554Z,14.73
2023-05-02T06:28:28.645Z,15.09
2023-05-02T06:31:30.496Z,15.27
2023-05-02T06:34:33.174Z,15.89
2023-05-02T06:37:36.567Z,16.21
2023-05-02T06:40:45.300Z,16.58
2023-05-02T06:43:47.294Z,16.97
2023-05-02T06:46:49.690Z,17.02
2023-05-02T06:49:52.041Z,17.23
2023-05-02T06:52:55.681Z,17.15
2023-05-02T06:55:57.877Z,17.35
2023-05-02T06:58:59.898Z,17.40
2023-05-02T07:02:03.674Z,17.35
2023-05-02T07:05:07.240Z,17.24
2023-05-02T07:08:11.665Z,16.83
2023-05-02T07:11:13.583Z,17.37
2023-05-02T07:14:15.612Z,17.14
2023-05-02T07:17:17.685Z,17.41
2023-05-02T07:20:20.188Z,17.30
2023-05-02T07:23:23.550Z,17.56
2023-05-02T07:26:27.600Z,17.65
2023-05-02T07:29:29.550Z,18.05
2023-05-02T07:32:31.954Z,17.81
2023-05-02T07:35:34.037Z,17.55
2023-05-02T07:38:37.842Z,17.38
2023-05-02T07:41:39.901Z,17.89
2023-05-02T07:44:42.146Z,18.14
2023-05-02T07:47:44.199Z,18.22
2023-05-02T07:50:46.336Z,18.54
2023-05-02T07:53:54.757Z,18.24
2023-05-02T07:56:58.840Z,18.87
2023-05-02T08:00:01.305Z,18.48
2023-05-02T08:03:03.755Z,18.78
2023-05-02T08:06:05.990Z,19.05
2023-05-02T08:14:02.705Z,19.21
2023-05-02T08:17:04.685Z,18.81
2023-05-02T08:20:07.927Z,19.35
2023-05-02T08:23:09.824Z,19.40
2023-05-02T08:26:13.196Z,19.45
2023-05-02T08:29:15.250Z,19.30
2023-05-02T08:32:17.369Z,19.45
2023-05-02T08:35:19.351Z,19.56
2023-05-02T08:38:21.295Z,19.17
2023-05-02T08:41:25.651Z,19.05
2023-05-02T08:44:28.017Z,18.79
2023-05-02T08:47:32.010Z,18.62
2023-05-02T08:50:37.139Z,19.50
2023-05-02T08:53:40.637Z,19.54
2023-05-02T08:56:44.118Z,20.03
2023-05-02T08:59:46.215Z,19.53
2023-05-02T09:03:00.198Z,19.36
2023-05-02T09:06:07.280Z,19.89
2023-05-02T09:09:09.505Z,20.20
2023-05-02T09:12:57.055Z,20.61
2023-05-02T09:20:05.070Z,20.59
2023-05-02T09:23:16.633Z,20.84
2023-05-02T09:30:42.351Z,21.35
2023-05-02T09:33:57.243Z,21.05
2023-05-02T09:36:59.449Z,21.28
2023-05-02T09:44:43.252Z,21.66
2023-05-02T09:52:15.722Z,21.32
2023-05-02T09:55:36.852Z,21.92
2023-05-02T09:58:39.171Z,21.63
2023-05-02T10:01:42.511Z,22.21
2023-05-02T10:04:47.480Z,21.99
2023-05-02T10:07:50.856Z,21.99
2023-05-02T10:10:54.250Z,22.64
2023-05-02T10:14:16.824Z,22.64
2023-05-02T10:17:23.530Z,23.04
2023-05-02T10:20:35.276Z,22.92
2023-05-02T10:23:46.741Z,22.79
2023-05-02T10:26:48.574Z,22.91
2023-05-02T10:29:51.965Z,22.56
2023-05-02T10:32:57.112Z,22.51
2023-05-02T10:35:59.506Z,22.49
2023-05-02T10:39:03.747Z,22.79
2023-05-02T10:42:07.176Z,23.17
2023-05-02T10:45:13.955Z,23.00
2023-05-02T10:48:18.281Z,22.97
2023-05-02T10:51:28.741Z,22.59
2023-05-02T10:54:32.237Z,22.92
2023-05-02T10:57:34.167Z,22.96
2023-05-02T11:00:36.147Z,22.48
2023-05-02T11:08:37.511Z,22.79
2023-05-02T11:15:54.647Z,23.32
2023-05-02T11:19:01.036Z,22.70
2023-05-02T11:22:32.716Z,23.37
2023-05-02T11:25:37.546Z,23.85
2023-05-02T11:28:47.780Z,24.22
2023-05-02T11:31:56.081Z,23.80
2023-05-02T11:34:59.432Z,23.48
2023-05-02T11:38:03.327Z,23.20
2023-05-02T11:41:06.163Z,23.69
2023-05-02T11:44:09.500Z,23.89
2023-05-02T11:47:11.837Z,23.63
2023-05-02T11:50:14.294Z,23.39
2023-05-02T11:53:18.983Z,23.34
2023-05-02T11:56:24.740Z,23.18
2023-05-02T11:59:28.365Z,23.73
2023-05-02T12:02:37.051Z,23.53
2023-05-02T12:05:39.806Z,22.81
2023-05-02T12:08:43.482Z,22.97
2023-05-02T12:11:45.324Z,23.36
2023-05-02T12:14:48.793Z,23.45
2023-05-02T12:17:52.311Z,23.27
2023-05-02T12:20:55.618Z,23.03
2023-05-02T12:23:58.423Z,23.23
2023-05-02T12:27:10.535Z,23.11
2023-05-02T12:30:26.822Z,23.09
2023-05-02T12:33:28.646Z,22.99
2023-05-02T12:36:30.740Z,23.00
2023-05-02T12:39:35.910Z,23.11
2023-05-02T12:42:38.752Z,23.44
2023-05-02T12:45:42.225Z,23.37
2023-05-02T12:48:46.175Z,23.26
2023-05-02T12:51:53.704Z,23.16
2023-05-02T12:55:15.652Z,23.15
2023-05-02T12:58:17.561Z,23.09
2023-05-02T13:01:21.233Z,23.14
2023-05-02T13:04:33.858Z,23.14
2023-05-02T13:07:36.585Z,23.03
2023-05-02T13:10:38.433Z,23.17
2023-05-02T13:13:40.412Z,23.10
2023-05-02T13:16:43.991Z,23.11
2023-05-02T13:19:57.827Z,22.99
2023-05-02T13:23:02.499Z,22.89
2023-05-02T13:26:04.615Z,22.86
2023-05-02T13:29:06.486Z,22.75
2023-05-02T13:32:10.264Z,22.65
2023-05-02T13:35:14.132Z,22.50
2023-05-02T13:38:16.601Z,22.43
2023-05-02T13:41:19.306Z,22.45
2023-05-02T13:44:21.637Z,22.28
2023-05-02T13:47:24.890Z,21.99
2023-05-02T13:50:27.546Z,21.82
2023-05-02T13:53:29.527Z,21.78
2023-05-02T13:56:31.430Z,21.76
2023-05-02T13:59:33.596Z,21.99
2023-05-02T14:02:37.577Z,21.91
2023-05-02T14:05:43.708Z,21.99
2023-05-02T14:08:45.998Z,21.50
2023-05-02T14:11:48.742Z,20.64
2023-05-02T14:14:50.540Z,20.68
2023-05-02T14:17:53.798Z,20.39
2023-05-02T14:20:59.920Z,20.76
2023-05-02T14:24:02.505Z,20.85
2023-05-02T14:27:07.264Z,20.92
2023-05-02T14:30:09.552Z,21.06
2023-05-02T14:33:12.776Z,21.11
2023-05-02T14:36:15.519Z,21.16
2023-05-02T14:39:17.476Z,21.26
2023-05-02T14:42:19.268Z,21.31
2023-05-02T14:45:21.610Z,21.61
2023-05-02T14:48:24.904Z,21.65
2023-05-02T14:51:27.459Z,21.72
2023-05-02T14:54:32.102Z,21.76
2023-05-02T14:57:34.135Z,21.83
2023-05-02T15:00:37.875Z,21.78
2023-05-02T15:03:56.528Z,22.03
2023-05-02T15:07:03.697Z,21.84
2023-05-02T15:10:06.676Z,21.90
2023-05-02T15:13:09.429Z,21.89
2023-05-02T15:16:11.520Z,21.81
2023-05-02T15:19:15.767Z,21.72
2023-05-02T15:22:18.416Z,21.63
2023-05-02T15:25:20.429Z,21.60
2023-05-02T15:28:22.305Z,21.52
2023-05-02T15:31:24.584Z,21.28
2023-05-02T15:34:28.002Z,21.33
2023-05-02T15:37:30.350Z,21.37
2023-05-02T15:40:32.211Z,21.42
2023-05-02T15:43:34.311Z,21.42
2023-05-02T15:46:36.399Z,21.43
2023-05-02T15:49:39.620Z,21.38
2023-05-02T15:52:41.401Z,21.52
2023-05-02T15:55:43.749Z,21.44
2023-05-02T15:58:45.628Z,21.42
2023-05-02T16:01:47.499Z,21.51
2023-05-02T16:04:51.586Z,20.87
2023-05-02T16:07:54.646Z,21.32
2023-05-02T16:10:57.930Z,21.39
2023-05-02T16:14:00.452Z,21.34
2023-05-02T16:17:02.390Z,21.43
2023-05-02T16:20:07.756Z,21.41
2023-05-02T16:23:10.057Z,21.40
2023-05-02T16:26:12.193Z,21.32
2023-05-02T16:29:14.029Z,21.38
2023-05-02T16:32:16.200Z,21.38
2023-05-02T16:35:20.066Z,21.32
2023-05-02T16:38:21.817Z,21.24
2023-05-02T16:41:24.161Z,21.22
2023-05-02T16:44:26.194Z,21.19
2023-05-02T16:47:28.393Z,20.93
2023-05-02T16:50:31.605Z,20.54
2023-05-02T16:53:33.467Z,20.49
2023-05-02T16:56:36.137Z,20.18
2023-05-02T16:59:37.950Z,20.25
2023-05-02T17:02:40.576Z,20.41
2023-05-02T17:05:43.877Z,20.22
2023-05-02T17:08:46.091Z,20.19
2023-05-02T17:11:47.913Z,20.13
2023-05-02T17:14:49.734Z,20.11
2023-05-02T17:17:52.474Z,19.92
2023-05-02T17:20:56.090Z,19.91
2023-05-02T17:23:58.202Z,19.89
2023-05-02T17:27:01.024Z,19.95
2023-05-02T17:30:03.328Z,19.86
2023-05-02T17:33:06.008Z,19.68
2023-05-02T17:36:09.549Z,19.27
2023-05-02T17:39:13.506Z,19.29
2023-05-02T17:42:16.132Z,18.82
2023-05-02T17:45:18.259Z,18.97
2023-05-02T17:48:20.299Z,18.73
2023-05-02T17:51:24.293Z,18.53
2023-05-02T17:54:28.006Z,18.47
2023-05-02T17:57:30.254Z,18.46
2023-05-02T18:00:33.239Z,18.54
2023-05-02T18:03:35.816Z,18.26
2023-05-02T18:06:41.798Z,18.21
2023-05-02T18:09:44.273Z,17.95
2023-05-02T18:12:46.602Z,17.85
2023-05-02T18:15:56.540Z,17.69
2023-05-02T18:18:59.291Z,17.58
2023-05-02T18:22:02.459Z,17.41
2023-05-02T18:25:06.399Z,17.40
2023-05-02T18:28:09.652Z,17.19
2023-05-02T18:31:21.552Z,17.20
2023-05-02T18:34:23.418Z,17.18
2023-05-02T18:37:31.655Z,17.06
2023-05-02T18:40:34.000Z,17.06
2023-05-02T18:43:36.762Z,16.95
2023-05-02T18:46:39.212Z,16.84
2023-05-02T18:49:42.475Z,16.95
2023-05-02T18:52:46.468Z,16.79
2023-05-02T18:55:50.045Z,16.87
2023-05-02T18:58:57.877Z,16.81
2023-05-02T19:02:01.205Z,16.79
2023-05-02T19:05:06.395Z,16.68
2023-05-02T19:08:10.099Z,16.59
2023-05-02T19:11:14.175Z,16.54
2023-05-02T19:14:19.946Z,15.96
2023-05-02T19:17:25.930Z,16.39
2023-05-02T19:20:29.293Z,16.32
2023-05-02T19:23:33.755Z,16.27
2023-05-02T19:26:40.173Z,16.29
2023-05-02T19:29:43.877Z,16.11
2023-05-02T19:32:46.532Z,16.19
2023-05-02T19:35:49.357Z,15.92
2023-05-02T19:38:54.652Z,15.78
2023-05-02T19:41:58.096Z,15.62
2023-05-02T19:45:00.995Z,15.42
2023-05-02T19:48:04.048Z,15.34
2023-05-02T19:51:07.071Z,15.30
2023-05-02T19:54:13.145Z,15.23
2023-05-02T19:57:18.066Z,15.16
2023-05-02T20:00:20.378Z,15.06
2023-05-02T20:03:25.583Z,15.36
2023-05-02T20:06:29.495Z,15.57
2023-05-02T20:09:34.107Z,15.31
2023-05-02T20:12:37.052Z,15.61
2023-05-02T20:15:39.795Z,15.33
2023-05-02T20:18:42.927Z,15.61
2023-05-02T20:21:45.633Z,15.57
2023-05-02T20:24:49.022Z,15.52
2023-05-02T20:27:52.032Z,15.37
2023-05-02T20:30:54.879Z,15.39
2023-05-02T20:33:56.891Z,15.23
2023-05-02T20:36:59.390Z,15.02
2023-05-02T20:40:03.304Z,15.05
2023-05-02T20:43:06.579Z,15.13
2023-05-02T20:46:13.081Z,15.06
2023-05-02T20:49:15.595Z,15.10
2023-05-02T20:52:17.838Z,15.07
2023-05-02T20:55:23.228Z,14.95
2023-05-02T20:58:24.901Z,15.12
2023-05-02T21:01:27.604Z,15.07
2023-05-02T21:04:29.412Z,15.07
2023-05-02T21:07:31.712Z,14.98
2023-05-02T21:10:34.916Z,14.97
2023-05-02T21:13:36.645Z,14.97
2023-05-02T21:16:38.494Z,14.96
2023-05-02T21:19:40.420Z,14.98
2023-05-02T21:22:42.484Z,15.21
2023-05-02T21:25:45.767Z,15.30
2023-05-02T21:28:47.585Z,15.38
2023-05-02T21:31:49.633Z,15.39
2023-05-02T21:34:51.793Z,15.42
2023-05-02T21:37:53.638Z,15.38
2023-05-02T21:41:01.848Z,15.05
2023-05-02T21:44:03.731Z,15.31
2023-05-02T21:47:06.588Z,15.31
2023-05-02T21:50:08.877Z,15.28
2023-05-02T21:53:10.940Z,15.28
2023-05-02T21:56:14.734Z,15.19
2023-05-02T21:59:16.534Z,15.28
2023-05-02T22:02:18.592Z,15.26
2023-05-02T22:05:21.756Z,15.24
2023-05-02T22:08:24.588Z,15.29
2023-05-02T22:11:31.430Z,15.28
2023-05-02T22:14:43.678Z,15.27
2023-05-02T22:17:47.481Z,15.23
2023-05-02T22:20:50.797Z,15.20
2023-05-02T22:23:52.642Z,15.19
2023-05-02T22:26:56.341Z,14.93
2023-05-02T22:29:58.393Z,14.84
2023-05-02T22:33:00.400Z,14.74
2023-05-02T22:36:02.338Z,14.63
2023-05-02T22:39:08.951Z,14.82
2023-05-02T22:42:12.622Z,15.15
2023-05-02T22:45:14.644Z,15.12
2023-05-02T22:48:17.415Z,15.05
2023-05-02T22:51:19.226Z,14.92
2023-05-02T22:54:21.468Z,15.03
2023-05-02T22:57:24.663Z,14.88
2023-05-02T23:00:27.423Z,14.93
2023-05-02T23:03:29.340Z,14.92
2023-05-02T23:06:32.282Z,14.89
2023-05-02T23:09:34.189Z,14.87
2023-05-02T23:12:37.800Z,14.87
2023-05-02T23:15:40.180Z,14.85
2023-05-02T23:18:42.023Z,14.93
2023-05-02T23:21:43.884Z,14.95
2023-05-02T23:24:47.827Z,14.90
2023-05-02T23:27:50.950Z,14.86
2023-05-02T23:30:53.890Z,15.06
2023-05-02T23:33:56.082Z,15.05
2023-05-02T23:36:58.226Z,14.86
2023-05-02T23:40:01.006Z,14.92
2023-05-02T23:43:05.161Z,14.85
2023-05-02T23:46:07.163Z,14.82
2023-05-02T23:49:08.990Z,14.86
2023-05-02T23:52:11.096Z,14.85
2023-05-02T23:55:13.092Z,14.68
2023-05-02T23:58:16.237Z,14.84
